SEKCJA WYDRUKÓW, pokaż »

METAR EPBY 290130Z 24007KT 9999 SCT006 BKN015 08/07 Q0999=

METAR EPGD 290130Z 22003KT 9999 FEW047 05/05 Q0998 =

METAR EPKK 290130Z 24003KT 9999 BKN050 10/09 Q1002 =

METAR EPKT 290130Z 22003KT 9999 -RA BKN037 08/07 Q1002 =

METAR EPLB 290130Z 20005KT CAVOK 11/10 Q1001 =

METAR EPLL 290130Z 22007KT 190V250 9999 BKN008 06/05 Q1001 =

METAR EPML 290130Z NIL=

METAR EPMO 290130Z 20008KT 4200 BR BKN003 08/07 Q1000 =

METAR EPPO 290130Z 23005KT 9999 BKN030 08/07 Q1000 =

METAR EPRA 290130Z NIL=

METAR EPRZ 290130Z 21009KT 9999 -RA BKN036 12/09 Q1001 =

METAR EPSC 290130Z 18003KT 0200 R31/0500N FG BKN000 05/04 Q0999 =

METAR EPSY 290130Z 16006KT 8000 BKN008 09/08 Q0998=

METAR EPWA 290130Z 21004KT CAVOK 07/07 Q1000 NOSIG=

METAR EPWR 290130Z 28003KT 240V030 CAVOK 04/03 Q1002 =

METAR EPZG 290130Z NIL=